createdAt,value
2022-12-23T00:01:28.064Z,99815.40
2022-12-23T00:03:58.625Z,99809.40
2022-12-23T00:06:25.875Z,99811.80
2022-12-23T00:09:00.007Z,99809.40
2022-12-23T00:11:28.192Z,99803.00
2022-12-23T00:14:20.533Z,99810.20
2022-12-23T00:16:49.585Z,99811.60
2022-12-23T00:19:16.072Z,99821.60
2022-12-23T00:21:42.543Z,99820.20
2022-12-23T00:24:11.670Z,99820.60
2022-12-23T00:26:38.995Z,99826.00
2022-12-23T00:29:05.328Z,99834.00
2022-12-23T00:31:32.488Z,99834.20
2022-12-23T00:33:59.429Z,99829.00
2022-12-23T00:36:29.602Z,99833.80
2022-12-23T00:39:20.174Z,99835.40
2022-12-23T00:42:05.610Z,99851.60
2022-12-23T00:44:33.098Z,99844.60
2022-12-23T00:46:59.462Z,99849.40
2022-12-23T00:49:42.107Z,99853.00
2022-12-23T00:52:16.430Z,99843.60
2022-12-23T00:54:44.338Z,99852.20
2022-12-23T00:57:11.410Z,99852.80
2022-12-23T00:59:38.224Z,99855.40
2022-12-23T01:02:23.428Z,99862.40
2022-12-23T01:05:08.823Z,99866.20
2022-12-23T01:07:35.997Z,99866.60
2022-12-23T01:10:04.291Z,99871.60
2022-12-23T01:12:30.744Z,99873.80
2022-12-23T01:14:58.551Z,99869.80
2022-12-23T01:17:25.555Z,99880.60
2022-12-23T01:19:51.876Z,99877.60
2022-12-23T01:22:18.316Z,99882.00
2022-12-23T01:24:45.605Z,99876.60
2022-12-23T01:27:13.242Z,99874.40
2022-12-23T01:29:39.882Z,99883.40
2022-12-23T01:32:06.891Z,99887.80
2022-12-23T01:34:37.155Z,99890.20
2022-12-23T01:37:05.677Z,99892.40
2022-12-23T01:39:35.123Z,99894.40
2022-12-23T01:42:20.572Z,99896.20
2022-12-23T01:45:27.776Z,99901.20
2022-12-23T01:48:06.715Z,99899.80
2022-12-23T01:50:55.506Z,99895.60
2022-12-23T01:53:35.312Z,99896.00
2022-12-23T01:56:12.806Z,99895.40
2022-12-23T01:58:50.066Z,99895.80
2022-12-23T02:01:38.065Z,99897.80
2022-12-23T02:04:12.666Z,99893.20
2022-12-23T02:07:01.647Z,99892.40
2022-12-23T02:09:31.721Z,99899.00
2022-12-23T02:12:42.641Z,99897.80
2022-12-23T02:15:37.110Z,99904.00
2022-12-23T02:18:23.684Z,99908.20
2022-12-23T02:21:32.177Z,99910.20
2022-12-23T02:24:32.518Z,99919.00
2022-12-23T02:27:22.230Z,99920.60
2022-12-23T02:30:42.825Z,99927.20
2022-12-23T02:33:30.050Z,99927.60
2022-12-23T02:36:12.307Z,99933.20
2022-12-23T02:39:06.860Z,99930.40
2022-12-23T02:42:01.840Z,99931.00
2022-12-23T02:45:15.021Z,99944.60
2022-12-23T02:47:56.390Z,99951.80
2022-12-23T02:50:37.545Z,99942.00
2022-12-23T02:53:18.189Z,99947.40
2022-12-23T02:55:48.503Z,99951.40
2022-12-23T02:58:22.096Z,99946.80
2022-12-23T03:00:50.268Z,99954.00
2022-12-23T03:03:16.849Z,99960.40
2022-12-23T03:05:47.951Z,99965.20
2022-12-23T03:08:28.982Z,99952.00
2022-12-23T03:11:05.367Z,99962.20
2022-12-23T03:14:01.691Z,99964.60
2022-12-23T03:17:01.634Z,99962.80
2022-12-23T03:19:49.606Z,99956.40
2022-12-23T03:22:16.707Z,99952.40
2022-12-23T03:24:55.037Z,99957.40
2022-12-23T03:27:44.599Z,99962.40
2022-12-23T03:30:16.914Z,99970.80
2022-12-23T03:33:00.525Z,99978.00
2022-12-23T03:35:38.486Z,99979.40
2022-12-23T03:38:11.264Z,99976.20
2022-12-23T03:40:49.420Z,99977.60
2022-12-23T03:43:46.629Z,99984.00
2022-12-23T03:46:30.159Z,99983.00
2022-12-23T03:49:11.066Z,99981.00
2022-12-23T03:52:01.768Z,99980.20
2022-12-23T03:54:45.338Z,99986.20
2022-12-23T03:57:21.963Z,99987.80
2022-12-23T03:59:53.563Z,99989.60
2022-12-23T04:02:57.333Z,99985.60
2022-12-23T04:05:37.047Z,99991.00
2022-12-23T04:08:32.677Z,99998.20
2022-12-23T04:11:05.427Z,99995.60
2022-12-23T04:13:34.193Z,99995.20
2022-12-23T04:16:02.494Z,99998.00
2022-12-23T04:18:29.824Z,100004.20
2022-12-23T04:20:59.286Z,100007.80
2022-12-23T04:23:28.481Z,100010.60
2022-12-23T04:25:55.018Z,100006.80
2022-12-23T04:28:23.710Z,100009.40
2022-12-23T04:30:51.042Z,100016.20
2022-12-23T04:33:18.290Z,100018.60
2022-12-23T04:35:45.321Z,100021.60
2022-12-23T04:38:11.841Z,100030.60
2022-12-23T04:40:38.307Z,100031.60
2022-12-23T04:43:07.163Z,100033.20
2022-12-23T04:45:34.117Z,100036.40
2022-12-23T04:48:02.996Z,100038.20
2022-12-23T04:50:29.586Z,100045.00
2022-12-23T04:52:56.069Z,100044.00
2022-12-23T04:55:22.881Z,100051.00
2022-12-23T04:57:50.395Z,100050.80
2022-12-23T05:00:20.053Z,100062.20
2022-12-23T05:02:46.473Z,100066.80
2022-12-23T05:05:14.227Z,100072.60
2022-12-23T05:07:40.997Z,100073.60
2022-12-23T05:10:08.895Z,100081.20
2022-12-23T05:12:36.541Z,100078.00
2022-12-23T05:15:03.353Z,100079.80
2022-12-23T05:17:29.672Z,100082.40
2022-12-23T05:19:56.801Z,100083.40
2022-12-23T05:22:24.577Z,100087.20
2022-12-23T05:24:52.525Z,100094.00
2022-12-23T05:27:19.064Z,100101.20
2022-12-23T05:29:45.428Z,100103.40
2022-12-23T05:32:11.776Z,100105.40
2022-12-23T05:34:38.815Z,100104.80
2022-12-23T05:37:09.160Z,100106.80
2022-12-23T05:39:37.111Z,100110.00
2022-12-23T05:42:04.086Z,100111.60
2022-12-23T05:44:31.199Z,100114.00
2022-12-23T05:46:58.074Z,100116.80
2022-12-23T05:49:26.401Z,100120.40
2022-12-23T05:51:52.922Z,100120.80
2022-12-23T05:54:19.280Z,100120.60
2022-12-23T05:56:45.699Z,100123.40
2022-12-23T05:59:12.123Z,100133.60
2022-12-23T06:01:40.127Z,100127.40
2022-12-23T06:04:06.780Z,100133.00
2022-12-23T06:06:33.832Z,100131.00
2022-12-23T06:09:01.220Z,100130.00
2022-12-23T06:11:28.424Z,100141.80
2022-12-23T06:13:55.137Z,100141.20
2022-12-23T06:16:21.917Z,100145.00
2022-12-23T06:18:49.836Z,100145.60
2022-12-23T06:21:18.735Z,100156.00
2022-12-23T06:23:47.993Z,100155.80
2022-12-23T06:26:14.465Z,100158.80
2022-12-23T06:28:40.828Z,100162.60
2022-12-23T06:31:09.619Z,100165.40
2022-12-23T06:33:36.262Z,100162.80
2022-12-23T06:36:04.700Z,100172.20
2022-12-23T06:38:31.254Z,100187.40
2022-12-23T06:40:58.461Z,100186.00
2022-12-23T06:43:24.806Z,100193.80
2022-12-23T06:45:51.490Z,100199.80
2022-12-23T06:48:18.255Z,100213.20
2022-12-23T06:50:45.829Z,100214.60
2022-12-23T06:53:12.904Z,100217.40
2022-12-23T06:55:41.267Z,100222.60
2022-12-23T06:58:10.128Z,100223.00
2022-12-23T07:00:39.228Z,100232.60
2022-12-23T07:03:10.191Z,100232.20
2022-12-23T07:05:38.330Z,100242.40
2022-12-23T07:08:05.486Z,100250.20
2022-12-23T07:10:34.213Z,100258.40
2022-12-23T07:13:01.221Z,100262.20
2022-12-23T07:15:29.077Z,100265.20
2022-12-23T07:17:57.269Z,100271.20
2022-12-23T07:20:24.189Z,100273.00
2022-12-23T07:22:55.113Z,100271.60
2022-12-23T07:25:21.643Z,100269.40
2022-12-23T07:27:53.640Z,100272.20
2022-12-23T07:30:21.361Z,100284.60
2022-12-23T07:32:49.611Z,100285.40
2022-12-23T07:35:17.289Z,100290.40
2022-12-23T07:37:45.337Z,100299.00
2022-12-23T07:40:12.199Z,100308.20
2022-12-23T07:42:46.945Z,100310.00
2022-12-23T07:45:13.865Z,100308.20
2022-12-23T07:47:42.167Z,100313.60
2022-12-23T07:50:16.932Z,100319.60
2022-12-23T07:52:43.520Z,100328.00
2022-12-23T07:55:10.174Z,100334.20
2022-12-23T07:57:43.154Z,100338.20
2022-12-23T08:00:12.302Z,100344.60
2022-12-23T08:02:40.900Z,100342.00
2022-12-23T08:05:09.301Z,100346.00
2022-12-23T08:07:36.399Z,100353.40
2022-12-23T08:10:04.474Z,100356.20
2022-12-23T08:12:32.268Z,100361.80
2022-12-23T08:15:05.857Z,100357.00
2022-12-23T08:17:34.923Z,100362.60
2022-12-23T08:20:01.591Z,100370.20
2022-12-23T08:22:32.136Z,100372.80
2022-12-23T08:25:01.221Z,100371.80
2022-12-23T08:27:28.255Z,100373.20
2022-12-23T08:29:56.566Z,100371.80
2022-12-23T08:32:26.756Z,100366.20
2022-12-23T08:34:56.917Z,100373.00
2022-12-23T08:37:24.168Z,100373.40
2022-12-23T08:39:50.945Z,100374.40
2022-12-23T08:42:17.442Z,100372.20
2022-12-23T08:44:44.224Z,100376.00
2022-12-23T08:47:11.289Z,100383.60
2022-12-23T08:49:38.076Z,100382.20
2022-12-23T08:52:05.000Z,100390.00
2022-12-23T08:54:31.506Z,100389.00
2022-12-23T08:57:00.949Z,100388.80
2022-12-23T08:59:27.505Z,100390.40
2022-12-23T09:01:59.591Z,100394.40
2022-12-23T09:04:26.235Z,100402.60
2022-12-23T09:06:54.176Z,100400.80
2022-12-23T09:09:21.107Z,100402.20
2022-12-23T09:11:49.047Z,100406.00
2022-12-23T09:14:15.691Z,100404.40
2022-12-23T09:16:42.328Z,100416.00
2022-12-23T09:19:10.196Z,100411.60
2022-12-23T09:21:37.185Z,100408.60
2022-12-23T09:24:07.366Z,100413.80
2022-12-23T09:26:34.138Z,100416.20
2022-12-23T09:29:00.663Z,100415.00
2022-12-23T09:31:34.363Z,100420.40
2022-12-23T09:34:02.898Z,100427.60
2022-12-23T09:36:29.434Z,100425.80
2022-12-23T09:38:59.405Z,100424.60
2022-12-23T09:41:48.230Z,100429.80
2022-12-23T09:44:50.278Z,100431.80
2022-12-23T09:47:24.245Z,100430.60
2022-12-23T09:50:00.161Z,100427.20
2022-12-23T09:53:00.302Z,100423.60
2022-12-23T09:55:56.288Z,100418.00
2022-12-23T09:58:32.853Z,100422.00
2022-12-23T10:01:33.325Z,100422.60
2022-12-23T10:04:46.343Z,100430.80
2022-12-23T10:07:50.890Z,100434.20
2022-12-23T10:10:34.611Z,100441.00
2022-12-23T10:13:05.423Z,100433.80
2022-12-23T10:15:48.968Z,100431.60
2022-12-23T10:18:34.655Z,100433.00
2022-12-23T10:21:11.038Z,100441.00
2022-12-23T10:23:43.056Z,100450.00
2022-12-23T10:26:47.037Z,100451.40
2022-12-23T10:29:21.044Z,100451.00
2022-12-23T10:32:13.044Z,100455.00
2022-12-23T10:35:06.153Z,100447.00
2022-12-23T10:37:57.151Z,100457.60
2022-12-23T10:41:08.835Z,100459.00
2022-12-23T10:43:59.994Z,100461.00
2022-12-23T10:47:07.615Z,100464.00
2022-12-23T10:50:04.193Z,100453.40
2022-12-23T10:52:45.484Z,100458.20
2022-12-23T10:55:39.630Z,100466.20
2022-12-23T10:58:17.909Z,100470.80
2022-12-23T11:01:13.950Z,100463.40
2022-12-23T11:04:16.511Z,100465.20
2022-12-23T11:06:55.791Z,100467.60
2022-12-23T11:10:00.988Z,100464.20
2022-12-23T11:12:46.649Z,100466.00
2022-12-23T11:15:34.077Z,100462.60
2022-12-23T11:18:20.474Z,100458.40
2022-12-23T11:21:06.257Z,100457.60
2022-12-23T11:23:38.216Z,100460.40
2022-12-23T11:26:14.551Z,100462.60
2022-12-23T11:29:01.769Z,100460.40
2022-12-23T11:31:34.835Z,100456.80
2022-12-23T11:34:16.000Z,100459.80
2022-12-23T11:36:45.980Z,100455.40
2022-12-23T11:39:36.099Z,100457.00
2022-12-23T11:42:17.127Z,100460.20
2022-12-23T11:44:49.985Z,100464.00
2022-12-23T11:47:21.290Z,100463.60
2022-12-23T11:49:57.621Z,100466.80
2022-12-23T11:52:30.802Z,100470.80
2022-12-23T11:55:01.320Z,100468.20
2022-12-23T11:57:45.527Z,100470.60
2022-12-23T12:00:42.291Z,100477.80
2022-12-23T12:03:20.072Z,100477.40
2022-12-23T12:05:59.483Z,100481.20
2022-12-23T12:08:37.467Z,100483.80
2022-12-23T12:11:25.640Z,100486.40
2022-12-23T12:14:00.891Z,100491.00
2022-12-23T12:16:30.627Z,100492.00
2022-12-23T12:19:16.086Z,100490.60
2022-12-23T12:21:46.001Z,100487.60
2022-12-23T12:24:33.757Z,100486.40
2022-12-23T12:27:12.352Z,100487.60
2022-12-23T12:29:56.906Z,100487.60
2022-12-23T12:32:52.901Z,100495.60
2022-12-23T12:35:53.481Z,100495.20
2022-12-23T12:38:31.961Z,100498.80
2022-12-23T12:41:31.284Z,100500.20
2022-12-23T12:44:39.510Z,100501.80
2022-12-23T12:47:52.801Z,100501.00
2022-12-23T12:50:30.620Z,100501.80
2022-12-23T12:53:11.485Z,100501.00
2022-12-23T12:55:46.124Z,100499.60
2022-12-23T12:58:20.441Z,100492.20
2022-12-23T13:01:20.096Z,100495.40
2022-12-23T13:04:06.457Z,100493.80
2022-12-23T13:07:14.762Z,100494.60
2022-12-23T13:10:57.855Z,100494.80
2022-12-23T13:14:12.684Z,100491.00
2022-12-23T13:17:37.615Z,100488.80
2022-12-23T13:21:17.557Z,100490.00
2022-12-23T13:24:33.933Z,100485.00
2022-12-23T13:27:14.447Z,100475.40
2022-12-23T13:30:12.688Z,100477.00
2022-12-23T13:33:14.466Z,100475.80
2022-12-23T13:36:05.090Z,100474.60
2022-12-23T13:39:37.445Z,100478.80
2022-12-23T13:42:18.187Z,100486.60
2022-12-23T13:44:48.337Z,100497.20
2022-12-23T13:47:35.341Z,100499.40
2022-12-23T13:51:01.460Z,100499.80
2022-12-23T13:54:05.460Z,100499.40
2022-12-23T13:57:09.711Z,100504.60
2022-12-23T13:59:43.777Z,100510.00
2022-12-23T14:02:37.356Z,100510.20
2022-12-23T14:05:33.707Z,100513.20
2022-12-23T14:08:44.034Z,100516.60
2022-12-23T14:11:24.479Z,100516.20
2022-12-23T14:14:02.157Z,100516.00
2022-12-23T14:17:19.811Z,100517.60
2022-12-23T14:20:16.246Z,100522.80
2022-12-23T14:23:36.987Z,100530.40
2022-12-23T14:26:30.947Z,100528.80
2022-12-23T14:29:11.600Z,100524.60
2022-12-23T14:31:55.454Z,100526.60
2022-12-23T14:34:34.610Z,100535.60
2022-12-23T14:37:38.292Z,100537.20
2022-12-23T14:40:36.699Z,100539.40
2022-12-23T14:43:44.883Z,100539.40
2022-12-23T14:46:49.329Z,100545.20
2022-12-23T14:49:46.032Z,100550.60
2022-12-23T14:52:39.365Z,100559.00
2022-12-23T14:55:32.425Z,100563.00
2022-12-23T14:58:33.529Z,100569.60
2022-12-23T15:01:08.836Z,100570.00
2022-12-23T15:03:45.799Z,100578.80
2022-12-23T15:06:26.288Z,100589.00
2022-12-23T15:08:57.526Z,100589.80
2022-12-23T15:11:32.628Z,100598.60
2022-12-23T15:14:11.334Z,100593.60
2022-12-23T15:16:44.231Z,100596.80
2022-12-23T15:19:26.704Z,100601.60
2022-12-23T15:22:17.302Z,100604.00
2022-12-23T15:24:49.778Z,100613.00
2022-12-23T15:27:28.478Z,100612.00
2022-12-23T15:30:00.028Z,100618.40
2022-12-23T15:32:28.881Z,100608.80
2022-12-23T15:35:05.031Z,100614.00
2022-12-23T15:37:36.111Z,100615.40
2022-12-23T15:40:11.953Z,100617.80
2022-12-23T15:42:48.243Z,100616.60
2022-12-23T15:45:36.240Z,100613.00
2022-12-23T15:48:23.374Z,100609.40
2022-12-23T15:50:54.303Z,100606.20
2022-12-23T15:53:39.195Z,100610.00
2022-12-23T15:56:20.677Z,100615.20
2022-12-23T15:58:49.518Z,100610.00
2022-12-23T16:01:20.603Z,100614.20
2022-12-23T16:03:58.999Z,100615.20
2022-12-23T16:06:35.462Z,100619.80
2022-12-23T16:09:27.626Z,100623.80
2022-12-23T16:11:59.281Z,100616.40
2022-12-23T16:14:44.243Z,100612.60
2022-12-23T16:17:20.692Z,100611.80
2022-12-23T16:19:56.094Z,100615.00
2022-12-23T16:22:32.495Z,100609.40
2022-12-23T16:25:25.167Z,100610.20
2022-12-23T16:28:12.614Z,100616.20
2022-12-23T16:30:43.418Z,100623.00
2022-12-23T16:33:38.216Z,100624.00
2022-12-23T16:36:28.784Z,100624.60
2022-12-23T16:39:21.951Z,100626.60
2022-12-23T16:41:50.155Z,100630.00
2022-12-23T16:44:18.975Z,100630.40
2022-12-23T16:46:50.628Z,100638.20
2022-12-23T16:49:21.343Z,100643.60
2022-12-23T16:51:48.986Z,100637.60
2022-12-23T16:54:19.235Z,100643.00
2022-12-23T16:56:47.104Z,100644.20
2022-12-23T16:59:14.171Z,100647.20
2022-12-23T17:01:48.693Z,100651.40
2022-12-23T17:04:17.955Z,100649.80
2022-12-23T17:06:46.842Z,100649.00
2022-12-23T17:09:14.517Z,100650.80
2022-12-23T17:11:54.774Z,100651.00
2022-12-23T17:14:25.144Z,100653.60
2022-12-23T17:16:52.674Z,100653.20
2022-12-23T17:19:27.212Z,100658.00
2022-12-23T17:22:01.113Z,100662.60
2022-12-23T17:24:32.225Z,100667.20
2022-12-23T17:26:58.605Z,100673.00
2022-12-23T17:29:28.011Z,100676.00
2022-12-23T17:31:54.389Z,100672.00
2022-12-23T17:34:23.759Z,100671.60
2022-12-23T17:36:51.339Z,100675.80
2022-12-23T17:39:24.997Z,100673.80
2022-12-23T17:41:51.486Z,100676.40
2022-12-23T17:44:19.259Z,100682.00
2022-12-23T17:46:47.006Z,100683.60
2022-12-23T17:49:15.604Z,100692.40
2022-12-23T17:51:42.683Z,100688.20
2022-12-23T17:54:24.383Z,100688.20
2022-12-23T17:56:52.932Z,100697.00
2022-12-23T17:59:22.903Z,100700.60
2022-12-23T18:01:49.614Z,100701.60
2022-12-23T18:04:18.472Z,100699.40
2022-12-23T18:06:46.925Z,100701.00
2022-12-23T18:09:13.355Z,100694.20
2022-12-23T18:11:45.964Z,100694.60
2022-12-23T18:14:27.491Z,100699.60
2022-12-23T18:16:54.108Z,100703.00
2022-12-23T18:19:21.581Z,100702.00
2022-12-23T18:21:51.772Z,100705.20
2022-12-23T18:24:20.900Z,100707.80
2022-12-23T18:26:49.156Z,100707.80
2022-12-23T18:29:15.662Z,100704.20
2022-12-23T18:31:51.406Z,100707.20
2022-12-23T18:34:20.664Z,100713.20
2022-12-23T18:36:51.020Z,100715.40
2022-12-23T18:39:20.239Z,100720.40
2022-12-23T18:41:46.953Z,100729.20
2022-12-23T18:44:19.890Z,100742.00
2022-12-23T18:46:56.617Z,100738.00
2022-12-23T18:49:24.644Z,100740.00
2022-12-23T18:51:52.160Z,100747.40
2022-12-23T18:54:19.725Z,100751.40
2022-12-23T18:56:48.824Z,100754.80
2022-12-23T18:59:24.261Z,100754.60
2022-12-23T19:01:59.822Z,100756.00
2022-12-23T19:04:27.190Z,100754.80
2022-12-23T19:06:56.081Z,100757.40
2022-12-23T19:09:23.819Z,100760.60
2022-12-23T19:11:53.349Z,100756.00
2022-12-23T19:14:19.859Z,100757.20
2022-12-23T19:16:51.501Z,100756.20
2022-12-23T19:19:21.400Z,100754.80
2022-12-23T19:21:51.563Z,100753.20
2022-12-23T19:24:18.152Z,100754.40
2022-12-23T19:26:45.243Z,100761.40
2022-12-23T19:29:19.781Z,100770.80
2022-12-23T19:31:46.767Z,100775.40
2022-12-23T19:34:16.187Z,100775.00
2022-12-23T19:36:44.276Z,100783.20
2022-12-23T19:39:18.895Z,100789.40
2022-12-23T19:41:46.242Z,100798.40
2022-12-23T19:44:13.822Z,100797.60
2022-12-23T19:46:41.444Z,100800.80
2022-12-23T19:49:08.144Z,100796.80
2022-12-23T19:51:34.867Z,100803.20
2022-12-23T19:54:02.450Z,100799.00
2022-12-23T19:56:30.757Z,100801.00
2022-12-23T19:58:59.142Z,100802.40
2022-12-23T20:01:27.694Z,100801.80
2022-12-23T20:03:55.713Z,100800.40
2022-12-23T20:06:29.703Z,100806.00
2022-12-23T20:09:00.847Z,100810.20
2022-12-23T20:11:29.853Z,100819.60
2022-12-23T20:13:58.003Z,100826.60
2022-12-23T20:16:26.156Z,100826.40
2022-12-23T20:18:54.138Z,100831.60
2022-12-23T20:21:21.510Z,100843.60
2022-12-23T20:23:53.884Z,100848.40
2022-12-23T20:26:23.784Z,100858.60
2022-12-23T20:28:50.643Z,100866.60
2022-12-23T20:31:23.636Z,100867.60
2022-12-23T20:33:52.652Z,100866.80
2022-12-23T20:36:26.893Z,100867.00
2022-12-23T20:38:53.584Z,100862.20
2022-12-23T20:41:25.045Z,100864.60
2022-12-23T20:44:31.677Z,100865.80
2022-12-23T20:46:43.661Z,100860.20
2022-12-23T20:49:12.653Z,100859.80
2022-12-23T20:51:40.817Z,100862.40
2022-12-23T20:54:07.849Z,100861.00
2022-12-23T20:56:34.228Z,100866.60
2022-12-23T20:59:03.539Z,100862.20
2022-12-23T21:01:41.643Z,100858.80
2022-12-23T21:04:13.471Z,100860.00
2022-12-23T21:06:50.931Z,100866.00
2022-12-23T21:09:19.089Z,100863.80
2022-12-23T21:11:47.764Z,100866.00
2022-12-23T21:14:16.536Z,100875.20
2022-12-23T21:16:43.783Z,100877.20
2022-12-23T21:19:22.467Z,100880.80
2022-12-23T21:21:51.627Z,100884.40
2022-12-23T21:24:19.783Z,100882.20
2022-12-23T21:26:55.408Z,100888.60
2022-12-23T21:29:25.579Z,100882.80
2022-12-23T21:31:52.493Z,100880.00
2022-12-23T21:34:20.481Z,100878.40
2022-12-23T21:36:46.894Z,100880.20
2022-12-23T21:39:16.354Z,100874.80
2022-12-23T21:41:45.231Z,100877.40
2022-12-23T21:44:15.663Z,100881.40
2022-12-23T21:46:42.913Z,100892.80
2022-12-23T21:49:12.624Z,100900.40
2022-12-23T21:51:41.055Z,100906.40
2022-12-23T21:54:11.656Z,100908.60
2022-12-23T21:56:39.908Z,100913.00
2022-12-23T21:59:14.589Z,100921.60
2022-12-23T22:01:43.795Z,100925.40
2022-12-23T22:04:12.095Z,100916.40
2022-12-23T22:06:44.447Z,100920.20
2022-12-23T22:09:16.268Z,100919.40
2022-12-23T22:11:43.880Z,100924.40
2022-12-23T22:14:14.315Z,100929.80
2022-12-23T22:16:42.765Z,100928.00
2022-12-23T22:19:12.215Z,100930.40
2022-12-23T22:21:39.083Z,100931.40
2022-12-23T22:24:06.509Z,100935.40
2022-12-23T22:26:38.230Z,100934.40
2022-12-23T22:29:11.844Z,100932.60
2022-12-23T22:31:50.753Z,100937.40
2022-12-23T22:34:21.973Z,100940.40
2022-12-23T22:36:49.965Z,100945.20
2022-12-23T22:39:21.710Z,100953.20
2022-12-23T22:41:50.778Z,100959.00
2022-12-23T22:44:19.515Z,100960.80
2022-12-23T22:46:48.228Z,100963.00
2022-12-23T22:49:15.999Z,100962.40
2022-12-23T22:51:44.668Z,100962.60
2022-12-23T22:54:26.573Z,100962.00
2022-12-23T22:56:52.975Z,100960.20
2022-12-23T22:59:24.238Z,100960.40
2022-12-23T23:01:53.183Z,100963.60
2022-12-23T23:04:19.640Z,100964.40
2022-12-23T23:06:55.302Z,100968.20
2022-12-23T23:09:24.573Z,100973.60
2022-12-23T23:11:53.644Z,100970.60
2022-12-23T23:14:20.992Z,100971.00
2022-12-23T23:16:48.636Z,100964.20
2022-12-23T23:19:15.901Z,100959.00
2022-12-23T23:21:43.333Z,100968.80
2022-12-23T23:24:13.011Z,100970.20
2022-12-23T23:26:40.058Z,100973.60
2022-12-23T23:29:07.846Z,100965.60
2022-12-23T23:31:43.351Z,100969.40
2022-12-23T23:34:12.512Z,100973.40
2022-12-23T23:36:41.329Z,100972.40
2022-12-23T23:39:11.446Z,100970.20
2022-12-23T23:41:38.955Z,100962.80
2022-12-23T23:44:06.266Z,100961.00
2022-12-23T23:46:33.998Z,100967.40
2022-12-23T23:49:00.573Z,100967.80
2022-12-23T23:51:28.689Z,100963.60
2022-12-23T23:53:55.621Z,100966.80
2022-12-23T23:56:25.820Z,100977.60
2022-12-23T23:58:55.761Z,100984.40
